Adriatic Sea — WDB5553 — position and weather

sailwx.info

Track history (hours):
 
Tides and Currents Weather Stations Pressure Air Temp Water Temp Dewpoint Dewpoint Depression Visibility Wind Speed Wind Dir Waves Ship Positions

Adriatic Sea

Owner: Kirby Offshore Marine, LLC, Seattle, WA. More information available from US FCC via Universal Licensing System and Coast Guard Vessel Documentation Center.

Last reported at 2015-Aug-02 17:33 UTC. Time now 2015-Aug-02 18:26 UTC.
Position N 37°49' W 122°26'.

Length 42 m; draft 5.3 m.

Type: Tug. MMSI: 366910890.

Date/timePositionNaut miles runAvg speedWind from/ knotsBaromVisibWave heightAir tempDewpointWater temp
2015-Aug-02 17:33N 37°49' W 122°26'9 8.7
2015-Aug-02 16:33N 37°46' W 122°36'6 5.8
2015-Aug-02 15:31N 37°43' W 122°43'6 5.9
2015-Aug-02 14:33N 37°40' W 122°49'6 6.0
2015-Aug-02 13:33N 37°36' W 122°55'6 5.9
2015-Aug-02 12:33N 37°33' W 123°01'6 6.1
2015-Aug-02 11:33N 37°27' W 123°04'7 6.7
2015-Aug-02 10:29N 37°20' W 123°06'6 6.8
2015-Aug-02 09:33N 37°14' W 123°04'7 6.7
2015-Aug-02 08:33N 37°08' W 123°02'7 7.2
2015-Aug-02 07:33N 37°01' W 122°58'7 7.1
2015-Aug-02 06:33N 36°55' W 122°54'7 7.1
2015-Aug-02 05:33N 36°49' W 122°49'7 6.8
2015-Aug-02 04:33N 36°43' W 122°45'6 6.5
2015-Aug-02 03:33N 36°37' W 122°42'7 6.9
2015-Aug-02 02:33N 36°31' W 122°38'7 7.2
2015-Aug-02 01:33N 36°25' W 122°34'23 6.9
2015-Aug-01 22:18N 36°05' W 122°20'5 6.6
2015-Aug-01 21:33N 36°01' W 122°17'7 6.9
2015-Aug-01 20:33N 35°55' W 122°13'7 7.1
2015-Aug-01 19:33N 35°49' W 122°08'7 7.2
2015-Aug-01 18:33N 35°42' W 122°04'7 7.1
2015-Aug-01 17:33N 35°36' W 121°60'7 6.8
2015-Aug-01 16:33N 35°30' W 121°55'7 7.1
2015-Aug-01 15:33N 35°24' W 121°51'25 7.3
2015-Aug-01 12:06N 35°02' W 121°35'4 7.1
2015-Aug-01 11:33N 34°59' W 121°33'7 6.8
2015-Aug-01 10:32N 34°53' W 121°28'43 7.1
2015-Aug-01 04:28N 34°26' W 120°48'7 7.3
2015-Aug-01 03:31N 34°24' W 120°40'38 7.6
2015-Jul-31 22:33N 34°14' W 119°56'10 7.9
2015-Jul-31 21:20N 34°11' W 119°44'10 8.4
2015-Jul-31 20:11N 34°09' W 119°33'5 8.7
2015-Jul-31 19:33N 34°07' W 119°27'9 8.3
2015-Jul-31 18:31N 34°05' W 119°17'8 8.3
2015-Jul-31 17:33N 34°01' W 119°08'8 8.3
2015-Jul-31 16:32N 33°57' W 118°59'8 8.2
2015-Jul-31 15:33N 33°53' W 118°51'8 8.3
2015-Jul-31 14:33N 33°49' W 118°42'8 8.3
2015-Jul-31 13:33N 33°45' W 118°34'8 8.0
2015-Jul-31 12:33N 33°41' W 118°25'7 7.2
2015-Jul-31 11:33N 33°39' W 118°17'5 5.4
2015-Jul-31 10:32N 33°45' W 118°16'1 0.1
2015-Jul-31 06:31N 33°45' W 118°16'0 0.0
2015-Jul-31 05:31N 33°45' W 118°16'0 0.0
2015-Jul-31 04:19N 33°45' W 118°16'0 0.0
2015-Jul-31 03:19N 33°45' W 118°16'0 0.0
2015-Jul-31 02:25N 33°45' W 118°16'0 0.0
2015-Jul-31 01:31N 33°45' W 118°16'0 0.0
2015-Jul-31 00:31N 33°45' W 118°16'0 0.0
2015-Jul-30 23:30N 33°45' W 118°16'0 0.0
2015-Jul-30 22:30N 33°45' W 118°16'0 0.0
2015-Jul-30 21:27N 33°45' W 118°16'1 0.2
2015-Jul-30 17:33N 33°45' W 118°16'1 0.3
2015-Jul-30 15:12N 33°45' W 118°16'0 0.0
2015-Jul-30 14:33N 33°45' W 118°16'4 4.3
2015-Jul-30 13:33N 33°41' W 118°14'8 7.3
2015-Jul-30 12:27N 33°33' W 118°14'113 6.0
2015-Jul-29 17:32N 34°17' W 120°20'6 6.3
2015-Jul-29 16:30N 34°18' W 120°28'6 6.5
2015-Jul-29 15:32N 34°20' W 120°35'7 6.4
2015-Jul-29 14:24N 34°22' W 120°43'6 6.4
2015-Jul-29 13:31N 34°23' W 120°50'6 6.3
2015-Jul-29 12:33N 34°25' W 120°57'6 6.2
2015-Jul-29 11:33N 34°27' W 121°04'6 6.5
2015-Jul-29 10:33N 34°29' W 121°12'6 6.1
2015-Jul-29 09:33N 34°33' W 121°17'6 6.4
2015-Jul-29 08:33N 34°39' W 121°21'6 6.3
2015-Jul-29 07:33N 34°44' W 121°24'6 6.5
2015-Jul-29 06:33N 34°50' W 121°28'6 6.3
2015-Jul-29 05:33N 34°55' W 121°32'6 6.3
2015-Jul-29 04:33N 35°00' W 121°36'6 6.3
2015-Jul-29 03:33N 35°06' W 121°40'7 6.9
2015-Jul-29 02:33N 35°12' W 121°45'7 7.0
2015-Jul-29 01:33N 35°18' W 121°49'7 7.0
2015-Jul-29 00:33N 35°24' W 121°54'7 7.2
2015-Jul-28 23:34N 35°30' W 121°58'8 7.7
2015-Jul-28 22:33N 35°37' W 122°03'8 7.6
2015-Jul-28 21:33N 35°43' W 122°07'8 7.7
2015-Jul-28 20:33N 35°50' W 122°12'8 7.9
2015-Jul-28 19:33N 35°57' W 122°17'8 7.6
2015-Jul-28 18:33N 36°04' W 122°21'7 7.3
2015-Jul-28 17:33N 36°10' W 122°26'8 7.5
2015-Jul-28 16:33N 36°17' W 122°30'7 7.4
2015-Jul-28 15:33N 36°23' W 122°34'7 7.0
2015-Jul-28 14:33N 36°29' W 122°38'7 6.8
2015-Jul-28 13:33N 36°36' W 122°42'7 6.7
2015-Jul-28 12:33N 36°42' W 122°45'7 6.9
2015-Jul-28 11:33N 36°48' W 122°49'7 6.9
2015-Jul-28 10:33N 36°54' W 122°53'7 6.7
2015-Jul-28 09:33N 36°60' W 122°57'7 7.0
2015-Jul-28 08:33N 37°06' W 123°00'7 7.0
2015-Jul-28 07:33N 37°12' W 123°05'7 6.7
2015-Jul-28 06:33N 37°18' W 123°10'7 6.6
2015-Jul-28 05:33N 37°23' W 123°14'7 6.8
2015-Jul-28 04:33N 37°29' W 123°19'7 6.7
2015-Jul-28 03:33N 37°35' W 123°23'7 7.4
2015-Jul-28 02:33N 37°41' W 123°27'7 7.4
2015-Jul-28 01:33N 37°48' W 123°31'7 7.5
2015-Jul-28 00:33N 37°55' W 123°36'7 7.4
2015-Jul-27 23:33N 38°01' W 123°41'8 7.5
2015-Jul-27 22:34N 38°07' W 123°46'8 7.7
2015-Jul-27 21:33N 38°14' W 123°50'8 7.6
2015-Jul-27 20:34N 38°21' W 123°55'8 7.7
2015-Jul-27 19:34N 38°27' W 123°60'  
2015-Jul-25 10:17N 45°23' W 125°07'5 7.0
2015-Jul-25 09:33N 45°29' W 125°07'7 7.1
2015-Jul-25 08:33N 45°36' W 125°09'7 7.1
2015-Jul-25 07:33N 45°43' W 125°11'7 7.2
2015-Jul-25 06:32N 45°50' W 125°12'7 7.2
2015-Jul-25 05:33N 45°57' W 125°12'7 7.1
2015-Jul-25 04:33N 46°04' W 125°12'7 7.3
2015-Jul-25 03:33N 46°11' W 125°12'7 7.2
2015-Jul-25 02:33N 46°19' W 125°12'7 7.4
2015-Jul-25 01:33N 46°26' W 125°12'7 7.3
2015-Jul-25 00:33N 46°33' W 125°12'7 7.2
2015-Jul-24 23:33N 46°40' W 125°12'9 7.1
2015-Jul-24 22:14N 46°50' W 125°13'75 6.9
2015-Jul-24 11:24N 48°05' W 125°09'7 7.0
2015-Jul-24 10:28N 48°11' W 125°05'7 7.2
2015-Jul-24 09:33N 48°17' W 125°02'7 7.4
2015-Jul-24 08:33N 48°24' W 124°57'7 7.4
2015-Jul-24 07:33N 48°26' W 124°47'8 8.3
2015-Jul-24 06:33N 48°24' W 124°35'9 8.0
2015-Jul-24 05:29N 48°20' W 124°23'7 7.7
2015-Jul-24 04:32N 48°17' W 124°13'7 7.3
2015-Jul-24 03:32N 48°14' W 124°03'7 6.9
2015-Jul-24 02:33N 48°12' W 123°54'7 6.9
2015-Jul-24 01:33N 48°12' W 123°43'7 7.1
2015-Jul-24 00:33N 48°12' W 123°33'7 7.2
2015-Jul-23 23:33N 48°12' W 123°22'4 7.2
2015-Jul-23 23:01N 48°13' W 123°16'4 7.8
2015-Jul-23 22:33N 48°15' W 123°12'9 7.9
2015-Jul-23 21:24N 48°20' W 123°00'7 7.6
2015-Jul-23 20:31N 48°23' W 122°51'7 7.5
2015-Jul-23 19:33N 48°29' W 122°45'7 7.5
2015-Jul-23 18:33N 48°36' W 122°45'6 6.5
2015-Jul-23 17:33N 48°43' W 122°45'  
Track history (hours):
 
Tides and Currents Weather Stations Pressure Air Temp Water Temp Dewpoint Dewpoint Depression Visibility Wind Speed Wind Dir Waves Ship Positions

Adriatic Sea

Owner: Kirby Offshore Marine, LLC, Seattle, WA. More information available from US FCC via Universal Licensing System and Coast Guard Vessel Documentation Center.

Last reported at 2015-Aug-02 17:33 UTC. Time now 2015-Aug-02 18:26 UTC.
Position N 37°49' W 122°26'.

Length 42 m; draft 5.3 m.

Type: Tug. MMSI: 366910890.

Date/timePositionNaut miles runAvg speedWind from/ knotsBaromVisibWave heightAir tempDewpointWater temp
2015-Aug-02 17:33N 37°49' W 122°26'9 8.7
2015-Aug-02 16:33N 37°46' W 122°36'6 5.8
2015-Aug-02 15:31N 37°43' W 122°43'6 5.9
2015-Aug-02 14:33N 37°40' W 122°49'6 6.0
2015-Aug-02 13:33N 37°36' W 122°55'6 5.9
2015-Aug-02 12:33N 37°33' W 123°01'6 6.1
2015-Aug-02 11:33N 37°27' W 123°04'7 6.7
2015-Aug-02 10:29N 37°20' W 123°06'6 6.8
2015-Aug-02 09:33N 37°14' W 123°04'7 6.7
2015-Aug-02 08:33N 37°08' W 123°02'7 7.2
2015-Aug-02 07:33N 37°01' W 122°58'7 7.1
2015-Aug-02 06:33N 36°55' W 122°54'7 7.1
2015-Aug-02 05:33N 36°49' W 122°49'7 6.8
2015-Aug-02 04:33N 36°43' W 122°45'6 6.5
2015-Aug-02 03:33N 36°37' W 122°42'7 6.9
2015-Aug-02 02:33N 36°31' W 122°38'7 7.2
2015-Aug-02 01:33N 36°25' W 122°34'23 6.9
2015-Aug-01 22:18N 36°05' W 122°20'5 6.6
2015-Aug-01 21:33N 36°01' W 122°17'7 6.9
2015-Aug-01 20:33N 35°55' W 122°13'7 7.1
2015-Aug-01 19:33N 35°49' W 122°08'7 7.2
2015-Aug-01 18:33N 35°42' W 122°04'7 7.1
2015-Aug-01 17:33N 35°36' W 121°60'7 6.8
2015-Aug-01 16:33N 35°30' W 121°55'7 7.1
2015-Aug-01 15:33N 35°24' W 121°51'25 7.3
2015-Aug-01 12:06N 35°02' W 121°35'4 7.1
2015-Aug-01 11:33N 34°59' W 121°33'7 6.8
2015-Aug-01 10:32N 34°53' W 121°28'43 7.1
2015-Aug-01 04:28N 34°26' W 120°48'7 7.3
2015-Aug-01 03:31N 34°24' W 120°40'38 7.6
2015-Jul-31 22:33N 34°14' W 119°56'10 7.9
2015-Jul-31 21:20N 34°11' W 119°44'10 8.4
2015-Jul-31 20:11N 34°09' W 119°33'5 8.7
2015-Jul-31 19:33N 34°07' W 119°27'9 8.3
2015-Jul-31 18:31N 34°05' W 119°17'8 8.3
2015-Jul-31 17:33N 34°01' W 119°08'8 8.3
2015-Jul-31 16:32N 33°57' W 118°59'8 8.2
2015-Jul-31 15:33N 33°53' W 118°51'8 8.3
2015-Jul-31 14:33N 33°49' W 118°42'8 8.3
2015-Jul-31 13:33N 33°45' W 118°34'8 8.0
2015-Jul-31 12:33N 33°41' W 118°25'7 7.2
2015-Jul-31 11:33N 33°39' W 118°17'5 5.4
2015-Jul-31 10:32N 33°45' W 118°16'1 0.1
2015-Jul-31 06:31N 33°45' W 118°16'0 0.0
2015-Jul-31 05:31N 33°45' W 118°16'0 0.0
2015-Jul-31 04:19N 33°45' W 118°16'0 0.0
2015-Jul-31 03:19N 33°45' W 118°16'0 0.0
2015-Jul-31 02:25N 33°45' W 118°16'0 0.0
2015-Jul-31 01:31N 33°45' W 118°16'0 0.0
2015-Jul-31 00:31N 33°45' W 118°16'0 0.0
2015-Jul-30 23:30N 33°45' W 118°16'0 0.0
2015-Jul-30 22:30N 33°45' W 118°16'0 0.0
2015-Jul-30 21:27N 33°45' W 118°16'1 0.2
2015-Jul-30 17:33N 33°45' W 118°16'1 0.3
2015-Jul-30 15:12N 33°45' W 118°16'0 0.0
2015-Jul-30 14:33N 33°45' W 118°16'4 4.3
2015-Jul-30 13:33N 33°41' W 118°14'8 7.3
2015-Jul-30 12:27N 33°33' W 118°14'113 6.0
2015-Jul-29 17:32N 34°17' W 120°20'6 6.3
2015-Jul-29 16:30N 34°18' W 120°28'6 6.5
2015-Jul-29 15:32N 34°20' W 120°35'7 6.4
2015-Jul-29 14:24N 34°22' W 120°43'6 6.4
2015-Jul-29 13:31N 34°23' W 120°50'6 6.3
2015-Jul-29 12:33N 34°25' W 120°57'6 6.2
2015-Jul-29 11:33N 34°27' W 121°04'6 6.5
2015-Jul-29 10:33N 34°29' W 121°12'6 6.1
2015-Jul-29 09:33N 34°33' W 121°17'6 6.4
2015-Jul-29 08:33N 34°39' W 121°21'6 6.3
2015-Jul-29 07:33N 34°44' W 121°24'6 6.5
2015-Jul-29 06:33N 34°50' W 121°28'6 6.3
2015-Jul-29 05:33N 34°55' W 121°32'6 6.3
2015-Jul-29 04:33N 35°00' W 121°36'6 6.3
2015-Jul-29 03:33N 35°06' W 121°40'7 6.9
2015-Jul-29 02:33N 35°12' W 121°45'7 7.0
2015-Jul-29 01:33N 35°18' W 121°49'7 7.0
2015-Jul-29 00:33N 35°24' W 121°54'7 7.2
2015-Jul-28 23:34N 35°30' W 121°58'8 7.7
2015-Jul-28 22:33N 35°37' W 122°03'8 7.6
2015-Jul-28 21:33N 35°43' W 122°07'8 7.7
2015-Jul-28 20:33N 35°50' W 122°12'8 7.9
2015-Jul-28 19:33N 35°57' W 122°17'8 7.6
2015-Jul-28 18:33N 36°04' W 122°21'7 7.3
2015-Jul-28 17:33N 36°10' W 122°26'8 7.5
2015-Jul-28 16:33N 36°17' W 122°30'7 7.4
2015-Jul-28 15:33N 36°23' W 122°34'7 7.0
2015-Jul-28 14:33N 36°29' W 122°38'7 6.8
2015-Jul-28 13:33N 36°36' W 122°42'7 6.7
2015-Jul-28 12:33N 36°42' W 122°45'7 6.9
2015-Jul-28 11:33N 36°48' W 122°49'7 6.9
2015-Jul-28 10:33N 36°54' W 122°53'7 6.7
2015-Jul-28 09:33N 36°60' W 122°57'7 7.0
2015-Jul-28 08:33N 37°06' W 123°00'7 7.0
2015-Jul-28 07:33N 37°12' W 123°05'7 6.7
2015-Jul-28 06:33N 37°18' W 123°10'7 6.6
2015-Jul-28 05:33N 37°23' W 123°14'7 6.8
2015-Jul-28 04:33N 37°29' W 123°19'7 6.7
2015-Jul-28 03:33N 37°35' W 123°23'7 7.4
2015-Jul-28 02:33N 37°41' W 123°27'7 7.4
2015-Jul-28 01:33N 37°48' W 123°31'7 7.5
2015-Jul-28 00:33N 37°55' W 123°36'7 7.4
2015-Jul-27 23:33N 38°01' W 123°41'8 7.5
2015-Jul-27 22:34N 38°07' W 123°46'8 7.7
2015-Jul-27 21:33N 38°14' W 123°50'8 7.6
2015-Jul-27 20:34N 38°21' W 123°55'8 7.7
2015-Jul-27 19:34N 38°27' W 123°60'  
2015-Jul-25 10:17N 45°23' W 125°07'5 7.0
2015-Jul-25 09:33N 45°29' W 125°07'7 7.1
2015-Jul-25 08:33N 45°36' W 125°09'7 7.1
2015-Jul-25 07:33N 45°43' W 125°11'7 7.2
2015-Jul-25 06:32N 45°50' W 125°12'7 7.2
2015-Jul-25 05:33N 45°57' W 125°12'7 7.1
2015-Jul-25 04:33N 46°04' W 125°12'7 7.3
2015-Jul-25 03:33N 46°11' W 125°12'7 7.2
2015-Jul-25 02:33N 46°19' W 125°12'7 7.4
2015-Jul-25 01:33N 46°26' W 125°12'7 7.3
2015-Jul-25 00:33N 46°33' W 125°12'7 7.2
2015-Jul-24 23:33N 46°40' W 125°12'9 7.1
2015-Jul-24 22:14N 46°50' W 125°13'75 6.9
2015-Jul-24 11:24N 48°05' W 125°09'7 7.0
2015-Jul-24 10:28N 48°11' W 125°05'7 7.2
2015-Jul-24 09:33N 48°17' W 125°02'7 7.4
2015-Jul-24 08:33N 48°24' W 124°57'7 7.4
2015-Jul-24 07:33N 48°26' W 124°47'8 8.3
2015-Jul-24 06:33N 48°24' W 124°35'9 8.0
2015-Jul-24 05:29N 48°20' W 124°23'7 7.7
2015-Jul-24 04:32N 48°17' W 124°13'7 7.3
2015-Jul-24 03:32N 48°14' W 124°03'7 6.9
2015-Jul-24 02:33N 48°12' W 123°54'7 6.9
2015-Jul-24 01:33N 48°12' W 123°43'7 7.1
2015-Jul-24 00:33N 48°12' W 123°33'7 7.2
2015-Jul-23 23:33N 48°12' W 123°22'4 7.2
2015-Jul-23 23:01N 48°13' W 123°16'4 7.8
2015-Jul-23 22:33N 48°15' W 123°12'9 7.9
2015-Jul-23 21:24N 48°20' W 123°00'7 7.6
2015-Jul-23 20:31N 48°23' W 122°51'7 7.5
2015-Jul-23 19:33N 48°29' W 122°45'7 7.5
2015-Jul-23 18:33N 48°36' W 122°45'6 6.5
2015-Jul-23 17:33N 48°43' W 122°45'  

Dump ship's entire track history